sensor_id;sensor_type;location;lat;lon;timestamp;P1;durP1;ratioP1;P2;durP2;ratioP2
74791;SDS011;63319;46.046;17.802;2023-01-24T00:00:57;7.47;;;4.18;;
74791;SDS011;63319;46.046;17.802;2023-01-24T00:04:00;9.27;;;4.50;;
74791;SDS011;63319;46.046;17.802;2023-01-24T00:07:03;8.23;;;4.87;;
74791;SDS011;63319;46.046;17.802;2023-01-24T00:10:10;7.90;;;4.53;;
74791;SDS011;63319;46.046;17.802;2023-01-24T00:13:15;8.45;;;4.40;;
74791;SDS011;63319;46.046;17.802;2023-01-24T00:16:20;7.50;;;4.47;;
74791;SDS011;63319;46.046;17.802;2023-01-24T00:19:23;8.47;;;4.60;;
74791;SDS011;63319;46.046;17.802;2023-01-24T00:22:26;10.07;;;4.97;;
74791;SDS011;63319;46.046;17.802;2023-01-24T00:25:29;8.65;;;4.72;;
74791;SDS011;63319;46.046;17.802;2023-01-24T00:28:32;8.15;;;4.55;;
74791;SDS011;63319;46.046;17.802;2023-01-24T00:31:36;8.07;;;4.43;;
74791;SDS011;63319;46.046;17.802;2023-01-24T00:34:48;6.90;;;4.10;;
74791;SDS011;63319;46.046;17.802;2023-01-24T00:37:50;8.00;;;4.63;;
74791;SDS011;63319;46.046;17.802;2023-01-24T00:40:53;8.50;;;4.55;;
74791;SDS011;63319;46.046;17.802;2023-01-24T00:43:56;8.60;;;4.32;;
74791;SDS011;63319;46.046;17.802;2023-01-24T00:46:59;8.32;;;4.43;;
74791;SDS011;63319;46.046;17.802;2023-01-24T00:50:03;7.67;;;4.47;;
74791;SDS011;63319;46.046;17.802;2023-01-24T00:53:07;6.97;;;4.20;;
74791;SDS011;63319;46.046;17.802;2023-01-24T00:56:09;8.40;;;4.32;;
74791;SDS011;63319;46.046;17.802;2023-01-24T00:59:13;7.75;;;4.60;;
74791;SDS011;63319;46.046;17.802;2023-01-24T01:02:17;10.23;;;4.63;;
74791;SDS011;63319;46.046;17.802;2023-01-24T01:05:21;7.70;;;4.70;;
74791;SDS011;63319;46.046;17.802;2023-01-24T01:08:24;8.43;;;5.07;;
74791;SDS011;63319;46.046;17.802;2023-01-24T01:11:31;9.10;;;4.50;;
74791;SDS011;63319;46.046;17.802;2023-01-24T01:14:34;7.93;;;4.05;;
74791;SDS011;63319;46.046;17.802;2023-01-24T01:17:38;9.52;;;4.63;;
74791;SDS011;63319;46.046;17.802;2023-01-24T01:20:41;7.90;;;4.47;;
74791;SDS011;63319;46.046;17.802;2023-01-24T01:23:44;7.10;;;4.07;;
74791;SDS011;63319;46.046;17.802;2023-01-24T01:26:47;7.22;;;4.13;;
74791;SDS011;63319;46.046;17.802;2023-01-24T01:29:50;8.05;;;4.22;;
74791;SDS011;63319;46.046;17.802;2023-01-24T01:32:54;6.75;;;3.88;;
74791;SDS011;63319;46.046;17.802;2023-01-24T01:35:57;8.40;;;4.40;;
74791;SDS011;63319;46.046;17.802;2023-01-24T01:39:00;8.17;;;4.70;;
74791;SDS011;63319;46.046;17.802;2023-01-24T01:42:03;7.13;;;3.85;;
74791;SDS011;63319;46.046;17.802;2023-01-24T01:48:38;6.70;;;4.00;;
74791;SDS011;63319;46.046;17.802;2023-01-24T01:51:44;7.50;;;4.00;;
74791;SDS011;63319;46.046;17.802;2023-01-24T01:54:52;7.17;;;4.07;;
74791;SDS011;63319;46.046;17.802;2023-01-24T01:58:01;7.30;;;3.80;;
74791;SDS011;63319;46.046;17.802;2023-01-24T02:01:06;6.63;;;3.83;;
74791;SDS011;63319;46.046;17.802;2023-01-24T02:04:14;7.63;;;4.38;;
74791;SDS011;63319;46.046;17.802;2023-01-24T02:07:26;8.47;;;4.63;;
74791;SDS011;63319;46.046;17.802;2023-01-24T02:10:53;6.87;;;3.53;;
74791;SDS011;63319;46.046;17.802;2023-01-24T02:14:17;8.57;;;4.47;;
74791;SDS011;63319;46.046;17.802;2023-01-24T02:17:40;7.43;;;4.22;;
74791;SDS011;63319;46.046;17.802;2023-01-24T02:20:44;7.10;;;4.05;;
74791;SDS011;63319;46.046;17.802;2023-01-24T02:23:57;9.57;;;5.77;;
74791;SDS011;63319;46.046;17.802;2023-01-24T02:27:06;7.07;;;4.17;;
74791;SDS011;63319;46.046;17.802;2023-01-24T02:30:10;7.40;;;3.92;;
74791;SDS011;63319;46.046;17.802;2023-01-24T02:33:14;7.03;;;4.03;;
74791;SDS011;63319;46.046;17.802;2023-01-24T02:39:31;8.13;;;4.10;;
74791;SDS011;63319;46.046;17.802;2023-01-24T02:42:38;7.50;;;4.57;;
74791;SDS011;63319;46.046;17.802;2023-01-24T02:45:47;7.22;;;3.88;;
74791;SDS011;63319;46.046;17.802;2023-01-24T02:48:58;7.13;;;4.10;;
74791;SDS011;63319;46.046;17.802;2023-01-24T02:52:01;7.00;;;3.50;;
74791;SDS011;63319;46.046;17.802;2023-01-24T02:55:27;7.33;;;4.17;;
74791;SDS011;63319;46.046;17.802;2023-01-24T02:58:30;6.57;;;3.53;;
74791;SDS011;63319;46.046;17.802;2023-01-24T03:01:33;6.65;;;4.10;;
74791;SDS011;63319;46.046;17.802;2023-01-24T03:04:36;6.63;;;3.45;;
74791;SDS011;63319;46.046;17.802;2023-01-24T03:07:41;7.40;;;4.05;;
74791;SDS011;63319;46.046;17.802;2023-01-24T03:10:48;7.90;;;4.00;;
74791;SDS011;63319;46.046;17.802;2023-01-24T03:13:52;7.63;;;4.40;;
74791;SDS011;63319;46.046;17.802;2023-01-24T03:17:14;7.55;;;4.05;;
74791;SDS011;63319;46.046;17.802;2023-01-24T03:20:35;6.65;;;3.85;;
74791;SDS011;63319;46.046;17.802;2023-01-24T03:23:57;7.28;;;3.83;;
74791;SDS011;63319;46.046;17.802;2023-01-24T03:27:18;9.53;;;4.17;;
74791;SDS011;63319;46.046;17.802;2023-01-24T03:30:43;7.90;;;4.10;;
74791;SDS011;63319;46.046;17.802;2023-01-24T03:34:13;6.50;;;3.70;;
74791;SDS011;63319;46.046;17.802;2023-01-24T03:37:34;6.20;;;3.30;;
74791;SDS011;63319;46.046;17.802;2023-01-24T03:40:57;6.88;;;3.80;;
74791;SDS011;63319;46.046;17.802;2023-01-24T03:44:00;6.27;;;3.90;;
74791;SDS011;63319;46.046;17.802;2023-01-24T03:47:04;6.23;;;3.47;;
74791;SDS011;63319;46.046;17.802;2023-01-24T03:50:09;6.80;;;3.97;;
74791;SDS011;63319;46.046;17.802;2023-01-24T03:53:30;6.95;;;3.40;;
74791;SDS011;63319;46.046;17.802;2023-01-24T03:56:34;6.70;;;3.42;;
74791;SDS011;63319;46.046;17.802;2023-01-24T03:59:39;7.20;;;4.03;;
74791;SDS011;63319;46.046;17.802;2023-01-24T04:02:43;5.83;;;3.30;;
74791;SDS011;63319;46.046;17.802;2023-01-24T04:05:50;6.95;;;3.67;;
74791;SDS011;63319;46.046;17.802;2023-01-24T04:08:53;5.97;;;3.45;;
74791;SDS011;63319;46.046;17.802;2023-01-24T04:11:59;6.60;;;3.75;;
74791;SDS011;63319;46.046;17.802;2023-01-24T04:15:05;6.93;;;4.07;;
74791;SDS011;63319;46.046;17.802;2023-01-24T04:18:08;5.93;;;3.30;;
74791;SDS011;63319;46.046;17.802;2023-01-24T04:21:12;6.55;;;3.95;;
74791;SDS011;63319;46.046;17.802;2023-01-24T04:24:15;6.80;;;4.05;;
74791;SDS011;63319;46.046;17.802;2023-01-24T04:27:19;6.50;;;3.15;;
74791;SDS011;63319;46.046;17.802;2023-01-24T04:30:39;6.20;;;3.60;;
74791;SDS011;63319;46.046;17.802;2023-01-24T04:33:53;6.63;;;3.73;;
74791;SDS011;63319;46.046;17.802;2023-01-24T04:36:59;6.97;;;3.72;;
74791;SDS011;63319;46.046;17.802;2023-01-24T04:40:02;6.70;;;3.58;;
74791;SDS011;63319;46.046;17.802;2023-01-24T04:43:07;8.32;;;4.63;;
74791;SDS011;63319;46.046;17.802;2023-01-24T04:46:10;6.30;;;3.53;;
74791;SDS011;63319;46.046;17.802;2023-01-24T04:49:26;6.17;;;3.57;;
74791;SDS011;63319;46.046;17.802;2023-01-24T04:52:33;6.10;;;3.50;;
74791;SDS011;63319;46.046;17.802;2023-01-24T04:55:41;6.22;;;3.60;;
74791;SDS011;63319;46.046;17.802;2023-01-24T04:58:44;7.13;;;3.80;;
74791;SDS011;63319;46.046;17.802;2023-01-24T05:01:48;6.63;;;3.97;;
74791;SDS011;63319;46.046;17.802;2023-01-24T05:05:06;6.97;;;3.63;;
74791;SDS011;63319;46.046;17.802;2023-01-24T05:08:11;7.35;;;4.10;;
74791;SDS011;63319;46.046;17.802;2023-01-24T05:11:14;7.25;;;3.67;;
74791;SDS011;63319;46.046;17.802;2023-01-24T05:14:22;6.55;;;3.95;;
74791;SDS011;63319;46.046;17.802;2023-01-24T05:17:25;7.70;;;3.97;;
74791;SDS011;63319;46.046;17.802;2023-01-24T05:20:30;6.77;;;3.87;;
74791;SDS011;63319;46.046;17.802;2023-01-24T05:23:40;7.07;;;3.85;;
74791;SDS011;63319;46.046;17.802;2023-01-24T05:26:46;6.15;;;3.53;;
74791;SDS011;63319;46.046;17.802;2023-01-24T05:29:54;7.43;;;3.75;;
74791;SDS011;63319;46.046;17.802;2023-01-24T05:32:57;7.63;;;4.33;;
74791;SDS011;63319;46.046;17.802;2023-01-24T05:36:01;7.33;;;4.37;;
74791;SDS011;63319;46.046;17.802;2023-01-24T05:39:10;6.93;;;4.10;;
74791;SDS011;63319;46.046;17.802;2023-01-24T05:42:13;7.15;;;4.13;;
74791;SDS011;63319;46.046;17.802;2023-01-24T05:45:19;6.82;;;3.83;;
74791;SDS011;63319;46.046;17.802;2023-01-24T05:48:22;7.80;;;3.80;;
74791;SDS011;63319;46.046;17.802;2023-01-24T05:51:25;6.97;;;4.23;;
74791;SDS011;63319;46.046;17.802;2023-01-24T05:54:32;7.93;;;4.30;;
74791;SDS011;63319;46.046;17.802;2023-01-24T05:57:38;7.03;;;3.92;;
74791;SDS011;63319;46.046;17.802;2023-01-24T06:00:52;7.32;;;4.13;;
74791;SDS011;63319;46.046;17.802;2023-01-24T06:04:12;7.67;;;4.40;;
74791;SDS011;63319;46.046;17.802;2023-01-24T06:07:15;7.10;;;3.80;;
74791;SDS011;63319;46.046;17.802;2023-01-24T06:10:22;7.55;;;3.88;;
74791;SDS011;63319;46.046;17.802;2023-01-24T06:13:36;7.32;;;3.95;;
74791;SDS011;63319;46.046;17.802;2023-01-24T06:16:40;6.57;;;3.80;;
74791;SDS011;63319;46.046;17.802;2023-01-24T06:19:48;7.63;;;4.30;;
74791;SDS011;63319;46.046;17.802;2023-01-24T06:22:52;7.07;;;4.23;;
74791;SDS011;63319;46.046;17.802;2023-01-24T06:25:57;6.80;;;3.72;;
74791;SDS011;63319;46.046;17.802;2023-01-24T06:29:03;6.97;;;3.90;;
74791;SDS011;63319;46.046;17.802;2023-01-24T06:38:29;7.60;;;4.00;;
74791;SDS011;63319;46.046;17.802;2023-01-24T06:41:32;6.78;;;3.50;;
74791;SDS011;63319;46.046;17.802;2023-01-24T06:44:35;6.78;;;3.72;;
74791;SDS011;63319;46.046;17.802;2023-01-24T06:47:38;6.30;;;4.05;;
74791;SDS011;63319;46.046;17.802;2023-01-24T06:50:43;7.80;;;3.87;;
74791;SDS011;63319;46.046;17.802;2023-01-24T06:53:45;6.33;;;3.77;;
74791;SDS011;63319;46.046;17.802;2023-01-24T06:56:49;7.50;;;3.80;;
74791;SDS011;63319;46.046;17.802;2023-01-24T06:59:52;7.28;;;3.88;;
74791;SDS011;63319;46.046;17.802;2023-01-24T07:02:56;6.78;;;3.67;;
74791;SDS011;63319;46.046;17.802;2023-01-24T07:06:01;7.53;;;3.70;;
74791;SDS011;63319;46.046;17.802;2023-01-24T07:09:04;6.50;;;3.57;;
74791;SDS011;63319;46.046;17.802;2023-01-24T07:12:07;7.18;;;3.80;;
74791;SDS011;63319;46.046;17.802;2023-01-24T07:15:10;7.97;;;3.55;;
74791;SDS011;63319;46.046;17.802;2023-01-24T07:18:13;6.85;;;3.80;;
74791;SDS011;63319;46.046;17.802;2023-01-24T07:21:18;7.00;;;3.73;;
74791;SDS011;63319;46.046;17.802;2023-01-24T07:24:25;6.83;;;3.60;;
74791;SDS011;63319;46.046;17.802;2023-01-24T07:27:30;7.93;;;3.35;;
74791;SDS011;63319;46.046;17.802;2023-01-24T07:30:33;6.53;;;3.47;;
74791;SDS011;63319;46.046;17.802;2023-01-24T07:33:36;9.32;;;4.07;;
74791;SDS011;63319;46.046;17.802;2023-01-24T07:36:40;8.03;;;4.03;;
74791;SDS011;63319;46.046;17.802;2023-01-24T07:39:44;8.00;;;3.90;;
74791;SDS011;63319;46.046;17.802;2023-01-24T07:42:47;7.30;;;3.85;;
74791;SDS011;63319;46.046;17.802;2023-01-24T07:45:50;6.55;;;3.47;;
74791;SDS011;63319;46.046;17.802;2023-01-24T07:48:54;9.35;;;4.30;;
74791;SDS011;63319;46.046;17.802;2023-01-24T07:51:57;7.67;;;3.73;;
74791;SDS011;63319;46.046;17.802;2023-01-24T07:55:00;6.87;;;3.30;;
74791;SDS011;63319;46.046;17.802;2023-01-24T07:58:03;7.97;;;4.00;;
74791;SDS011;63319;46.046;17.802;2023-01-24T08:01:06;8.38;;;3.70;;
74791;SDS011;63319;46.046;17.802;2023-01-24T08:04:09;6.80;;;3.78;;
74791;SDS011;63319;46.046;17.802;2023-01-24T08:07:13;7.77;;;3.50;;
74791;SDS011;63319;46.046;17.802;2023-01-24T08:10:19;9.63;;;4.00;;
74791;SDS011;63319;46.046;17.802;2023-01-24T08:13:24;7.38;;;3.78;;
74791;SDS011;63319;46.046;17.802;2023-01-24T08:16:27;6.25;;;3.58;;
74791;SDS011;63319;46.046;17.802;2023-01-24T08:19:30;7.20;;;3.65;;
74791;SDS011;63319;46.046;17.802;2023-01-24T08:22:54;7.13;;;3.83;;
74791;SDS011;63319;46.046;17.802;2023-01-24T08:26:00;7.30;;;3.33;;
74791;SDS011;63319;46.046;17.802;2023-01-24T08:29:22;7.03;;;3.45;;
74791;SDS011;63319;46.046;17.802;2023-01-24T08:32:33;7.95;;;3.75;;
74791;SDS011;63319;46.046;17.802;2023-01-24T08:35:36;8.52;;;3.53;;
74791;SDS011;63319;46.046;17.802;2023-01-24T08:38:41;7.27;;;4.00;;
74791;SDS011;63319;46.046;17.802;2023-01-24T08:41:44;11.77;;;4.10;;
74791;SDS011;63319;46.046;17.802;2023-01-24T08:44:48;8.02;;;4.50;;
74791;SDS011;63319;46.046;17.802;2023-01-24T08:47:52;12.00;;;4.00;;
74791;SDS011;63319;46.046;17.802;2023-01-24T08:50:55;7.60;;;3.30;;
74791;SDS011;63319;46.046;17.802;2023-01-24T08:53:58;6.37;;;3.73;;
74791;SDS011;63319;46.046;17.802;2023-01-24T08:57:02;7.17;;;4.00;;
74791;SDS011;63319;46.046;17.802;2023-01-24T09:00:06;7.25;;;3.58;;
74791;SDS011;63319;46.046;17.802;2023-01-24T09:03:10;9.02;;;3.53;;
74791;SDS011;63319;46.046;17.802;2023-01-24T09:06:15;8.38;;;3.40;;
74791;SDS011;63319;46.046;17.802;2023-01-24T09:09:19;8.90;;;3.87;;
74791;SDS011;63319;46.046;17.802;2023-01-24T09:12:22;7.43;;;3.50;;
74791;SDS011;63319;46.046;17.802;2023-01-24T09:15:25;6.68;;;3.25;;
74791;SDS011;63319;46.046;17.802;2023-01-24T09:18:28;6.97;;;3.35;;
74791;SDS011;63319;46.046;17.802;2023-01-24T09:21:30;10.27;;;4.15;;
74791;SDS011;63319;46.046;17.802;2023-01-24T09:24:33;6.83;;;3.77;;
74791;SDS011;63319;46.046;17.802;2023-01-24T09:27:36;8.53;;;3.83;;
74791;SDS011;63319;46.046;17.802;2023-01-24T09:30:40;7.53;;;4.10;;
74791;SDS011;63319;46.046;17.802;2023-01-24T09:33:43;6.78;;;3.63;;
74791;SDS011;63319;46.046;17.802;2023-01-24T09:37:00;8.50;;;3.85;;
74791;SDS011;63319;46.046;17.802;2023-01-24T09:40:04;11.97;;;3.73;;
74791;SDS011;63319;46.046;17.802;2023-01-24T09:46:33;10.38;;;4.35;;
74791;SDS011;63319;46.046;17.802;2023-01-24T09:49:52;6.95;;;4.30;;
74791;SDS011;63319;46.046;17.802;2023-01-24T09:53:01;9.07;;;4.18;;
74791;SDS011;63319;46.046;17.802;2023-01-24T09:56:05;8.10;;;4.23;;
74791;SDS011;63319;46.046;17.802;2023-01-24T09:59:37;10.57;;;4.60;;
74791;SDS011;63319;46.046;17.802;2023-01-24T10:02:44;8.75;;;4.10;;
74791;SDS011;63319;46.046;17.802;2023-01-24T10:05:48;9.32;;;4.72;;
74791;SDS011;63319;46.046;17.802;2023-01-24T10:12:20;7.97;;;4.43;;
74791;SDS011;63319;46.046;17.802;2023-01-24T10:25:18;10.60;;;5.45;;
74791;SDS011;63319;46.046;17.802;2023-01-24T10:28:33;10.10;;;5.40;;
74791;SDS011;63319;46.046;17.802;2023-01-24T10:31:41;9.17;;;5.43;;
74791;SDS011;63319;46.046;17.802;2023-01-24T10:34:56;13.20;;;6.25;;
74791;SDS011;63319;46.046;17.802;2023-01-24T10:38:02;11.60;;;5.75;;
74791;SDS011;63319;46.046;17.802;2023-01-24T10:41:14;10.40;;;5.05;;
74791;SDS011;63319;46.046;17.802;2023-01-24T10:44:25;10.97;;;5.03;;
74791;SDS011;63319;46.046;17.802;2023-01-24T10:47:42;9.90;;;4.83;;
74791;SDS011;63319;46.046;17.802;2023-01-24T10:54:27;9.77;;;4.65;;
74791;SDS011;63319;46.046;17.802;2023-01-24T10:57:43;11.27;;;5.38;;
74791;SDS011;63319;46.046;17.802;2023-01-24T11:00:57;10.70;;;5.10;;
74791;SDS011;63319;46.046;17.802;2023-01-24T11:04:21;11.33;;;5.53;;
74791;SDS011;63319;46.046;17.802;2023-01-24T11:07:29;9.40;;;5.43;;
74791;SDS011;63319;46.046;17.802;2023-01-24T11:10:35;9.98;;;5.15;;
74791;SDS011;63319;46.046;17.802;2023-01-24T11:13:40;11.27;;;5.43;;
74791;SDS011;63319;46.046;17.802;2023-01-24T11:16:45;11.93;;;5.07;;
74791;SDS011;63319;46.046;17.802;2023-01-24T11:19:56;10.63;;;4.60;;
74791;SDS011;63319;46.046;17.802;2023-01-24T11:23:04;12.30;;;5.55;;
74791;SDS011;63319;46.046;17.802;2023-01-24T11:26:25;11.15;;;5.07;;
74791;SDS011;63319;46.046;17.802;2023-01-24T11:29:31;7.97;;;4.55;;
74791;SDS011;63319;46.046;17.802;2023-01-24T11:46:13;7.70;;;4.75;;
74791;SDS011;63319;46.046;17.802;2023-01-24T11:49:47;9.83;;;4.50;;
74791;SDS011;63319;46.046;17.802;2023-01-24T11:53:09;8.97;;;4.97;;
74791;SDS011;63319;46.046;17.802;2023-01-24T12:06:34;9.80;;;4.60;;
74791;SDS011;63319;46.046;17.802;2023-01-24T12:16:59;8.15;;;4.38;;
74791;SDS011;63319;46.046;17.802;2023-01-24T12:20:49;10.35;;;5.00;;
74791;SDS011;63319;46.046;17.802;2023-01-24T12:24:12;10.53;;;4.40;;
74791;SDS011;63319;46.046;17.802;2023-01-24T12:27:24;9.73;;;4.50;;
74791;SDS011;63319;46.046;17.802;2023-01-24T12:30:42;11.10;;;6.82;;
74791;SDS011;63319;46.046;17.802;2023-01-24T12:33:58;13.25;;;7.70;;
74791;SDS011;63319;46.046;17.802;2023-01-24T12:43:53;10.90;;;7.20;;
74791;SDS011;63319;46.046;17.802;2023-01-24T12:50:58;12.70;;;7.75;;
74791;SDS011;63319;46.046;17.802;2023-01-24T12:54:19;15.55;;;10.35;;
74791;SDS011;63319;46.046;17.802;2023-01-24T13:04:03;10.82;;;6.57;;
74791;SDS011;63319;46.046;17.802;2023-01-24T13:10:46;12.13;;;6.13;;
74791;SDS011;63319;46.046;17.802;2023-01-24T13:14:20;10.67;;;5.37;;
74791;SDS011;63319;46.046;17.802;2023-01-24T13:33:44;13.38;;;5.10;;
74791;SDS011;63319;46.046;17.802;2023-01-24T13:36:51;12.13;;;4.57;;
74791;SDS011;63319;46.046;17.802;2023-01-24T13:40:05;13.90;;;4.68;;
74791;SDS011;63319;46.046;17.802;2023-01-24T13:47:03;12.43;;;4.10;;
74791;SDS011;63319;46.046;17.802;2023-01-24T13:50:14;8.82;;;4.47;;
74791;SDS011;63319;46.046;17.802;2023-01-24T13:53:56;8.77;;;4.07;;
74791;SDS011;63319;46.046;17.802;2023-01-24T14:00:25;7.83;;;4.20;;
74791;SDS011;63319;46.046;17.802;2023-01-24T14:03:34;14.25;;;4.50;;
74791;SDS011;63319;46.046;17.802;2023-01-24T14:06:42;9.15;;;4.88;;
74791;SDS011;63319;46.046;17.802;2023-01-24T14:09:47;8.57;;;4.35;;
74791;SDS011;63319;46.046;17.802;2023-01-24T14:12:53;8.77;;;4.85;;
74791;SDS011;63319;46.046;17.802;2023-01-24T14:15:56;9.40;;;4.80;;
74791;SDS011;63319;46.046;17.802;2023-01-24T14:19:20;9.55;;;4.10;;
74791;SDS011;63319;46.046;17.802;2023-01-24T14:22:31;9.95;;;4.40;;
74791;SDS011;63319;46.046;17.802;2023-01-24T14:25:40;10.93;;;4.97;;
74791;SDS011;63319;46.046;17.802;2023-01-24T14:28:52;7.95;;;4.10;;
74791;SDS011;63319;46.046;17.802;2023-01-24T14:31:58;9.33;;;4.57;;
74791;SDS011;63319;46.046;17.802;2023-01-24T14:35:18;8.20;;;4.38;;
74791;SDS011;63319;46.046;17.802;2023-01-24T14:38:25;9.82;;;4.53;;
74791;SDS011;63319;46.046;17.802;2023-01-24T14:41:28;8.13;;;4.38;;
74791;SDS011;63319;46.046;17.802;2023-01-24T14:44:52;8.40;;;4.05;;
74791;SDS011;63319;46.046;17.802;2023-01-24T14:47:58;7.50;;;3.97;;
74791;SDS011;63319;46.046;17.802;2023-01-24T14:51:05;8.43;;;4.32;;
74791;SDS011;63319;46.046;17.802;2023-01-24T14:54:15;9.48;;;5.30;;
74791;SDS011;63319;46.046;17.802;2023-01-24T14:57:27;8.20;;;4.00;;
74791;SDS011;63319;46.046;17.802;2023-01-24T15:00:35;8.38;;;4.13;;
74791;SDS011;63319;46.046;17.802;2023-01-24T15:03:41;9.63;;;4.63;;
74791;SDS011;63319;46.046;17.802;2023-01-24T15:07:24;8.77;;;4.35;;
74791;SDS011;63319;46.046;17.802;2023-01-24T15:10:32;10.18;;;4.40;;
74791;SDS011;63319;46.046;17.802;2023-01-24T15:13:43;8.20;;;3.97;;
74791;SDS011;63319;46.046;17.802;2023-01-24T15:16:54;7.32;;;3.85;;
74791;SDS011;63319;46.046;17.802;2023-01-24T15:19:58;9.30;;;4.50;;
74791;SDS011;63319;46.046;17.802;2023-01-24T15:23:13;8.90;;;4.88;;
74791;SDS011;63319;46.046;17.802;2023-01-24T15:29:37;9.32;;;4.70;;
74791;SDS011;63319;46.046;17.802;2023-01-24T15:32:48;9.18;;;4.07;;
74791;SDS011;63319;46.046;17.802;2023-01-24T15:35:52;8.10;;;3.97;;
74791;SDS011;63319;46.046;17.802;2023-01-24T15:38:56;8.73;;;3.95;;
74791;SDS011;63319;46.046;17.802;2023-01-24T15:42:05;8.73;;;4.57;;
74791;SDS011;63319;46.046;17.802;2023-01-24T15:45:50;9.35;;;4.68;;
74791;SDS011;63319;46.046;17.802;2023-01-24T15:52:35;8.77;;;4.47;;
74791;SDS011;63319;46.046;17.802;2023-01-24T15:55:41;7.32;;;4.30;;
74791;SDS011;63319;46.046;17.802;2023-01-24T15:58:45;7.38;;;4.47;;
74791;SDS011;63319;46.046;17.802;2023-01-24T16:01:49;9.23;;;4.85;;
74791;SDS011;63319;46.046;17.802;2023-01-24T16:04:52;8.63;;;4.47;;
74791;SDS011;63319;46.046;17.802;2023-01-24T16:07:55;9.30;;;4.43;;
74791;SDS011;63319;46.046;17.802;2023-01-24T16:10:59;7.88;;;4.18;;
74791;SDS011;63319;46.046;17.802;2023-01-24T16:14:02;7.75;;;4.20;;
74791;SDS011;63319;46.046;17.802;2023-01-24T16:17:08;7.55;;;4.30;;
74791;SDS011;63319;46.046;17.802;2023-01-24T16:20:16;9.02;;;4.30;;
74791;SDS011;63319;46.046;17.802;2023-01-24T16:23:21;7.83;;;4.03;;
74791;SDS011;63319;46.046;17.802;2023-01-24T16:26:24;7.00;;;4.07;;
74791;SDS011;63319;46.046;17.802;2023-01-24T16:29:28;7.00;;;3.85;;
74791;SDS011;63319;46.046;17.802;2023-01-24T16:32:32;6.82;;;3.78;;
74791;SDS011;63319;46.046;17.802;2023-01-24T16:35:36;6.40;;;3.35;;
74791;SDS011;63319;46.046;17.802;2023-01-24T16:38:42;8.00;;;3.90;;
74791;SDS011;63319;46.046;17.802;2023-01-24T16:41:46;8.40;;;4.32;;
74791;SDS011;63319;46.046;17.802;2023-01-24T16:44:57;8.93;;;4.55;;
74791;SDS011;63319;46.046;17.802;2023-01-24T16:48:01;8.48;;;3.92;;
74791;SDS011;63319;46.046;17.802;2023-01-24T16:51:11;7.82;;;4.43;;
74791;SDS011;63319;46.046;17.802;2023-01-24T16:54:15;8.10;;;4.60;;
74791;SDS011;63319;46.046;17.802;2023-01-24T16:57:18;9.02;;;4.55;;
74791;SDS011;63319;46.046;17.802;2023-01-24T17:00:25;8.73;;;4.80;;
74791;SDS011;63319;46.046;17.802;2023-01-24T17:03:28;7.25;;;4.43;;
74791;SDS011;63319;46.046;17.802;2023-01-24T17:06:32;8.73;;;5.28;;
74791;SDS011;63319;46.046;17.802;2023-01-24T17:09:37;8.00;;;4.50;;
74791;SDS011;63319;46.046;17.802;2023-01-24T17:12:40;7.80;;;4.60;;
74791;SDS011;63319;46.046;17.802;2023-01-24T17:15:46;9.50;;;4.68;;
74791;SDS011;63319;46.046;17.802;2023-01-24T17:18:51;10.82;;;5.57;;
74791;SDS011;63319;46.046;17.802;2023-01-24T17:21:54;7.65;;;4.90;;
74791;SDS011;63319;46.046;17.802;2023-01-24T17:25:01;9.40;;;5.73;;
74791;SDS011;63319;46.046;17.802;2023-01-24T17:28:05;8.35;;;4.53;;
74791;SDS011;63319;46.046;17.802;2023-01-24T17:31:10;8.25;;;4.97;;
74791;SDS011;63319;46.046;17.802;2023-01-24T17:34:16;8.27;;;5.40;;
74791;SDS011;63319;46.046;17.802;2023-01-24T17:37:19;9.10;;;5.25;;
74791;SDS011;63319;46.046;17.802;2023-01-24T17:40:23;10.87;;;6.33;;
74791;SDS011;63319;46.046;17.802;2023-01-24T17:43:28;10.73;;;6.18;;
74791;SDS011;63319;46.046;17.802;2023-01-24T17:46:52;11.18;;;5.30;;
74791;SDS011;63319;46.046;17.802;2023-01-24T17:49:56;9.50;;;5.03;;
74791;SDS011;63319;46.046;17.802;2023-01-24T17:53:00;10.43;;;5.97;;
74791;SDS011;63319;46.046;17.802;2023-01-24T17:56:06;9.13;;;5.23;;
74791;SDS011;63319;46.046;17.802;2023-01-24T17:59:12;9.38;;;5.45;;
74791;SDS011;63319;46.046;17.802;2023-01-24T18:02:18;9.85;;;6.20;;
74791;SDS011;63319;46.046;17.802;2023-01-24T18:05:25;10.35;;;5.65;;
74791;SDS011;63319;46.046;17.802;2023-01-24T18:08:29;11.57;;;6.43;;
74791;SDS011;63319;46.046;17.802;2023-01-24T18:11:33;9.47;;;5.67;;
74791;SDS011;63319;46.046;17.802;2023-01-24T18:14:39;9.30;;;5.63;;
74791;SDS011;63319;46.046;17.802;2023-01-24T18:17:45;11.43;;;5.75;;
74791;SDS011;63319;46.046;17.802;2023-01-24T18:20:55;10.88;;;5.57;;
74791;SDS011;63319;46.046;17.802;2023-01-24T18:23:59;11.93;;;5.45;;
74791;SDS011;63319;46.046;17.802;2023-01-24T18:27:06;10.07;;;6.10;;
74791;SDS011;63319;46.046;17.802;2023-01-24T18:30:13;9.60;;;5.85;;
74791;SDS011;63319;46.046;17.802;2023-01-24T18:33:19;10.48;;;5.88;;
74791;SDS011;63319;46.046;17.802;2023-01-24T18:36:22;9.13;;;5.30;;
74791;SDS011;63319;46.046;17.802;2023-01-24T18:39:26;8.48;;;5.00;;
74791;SDS011;63319;46.046;17.802;2023-01-24T18:42:31;10.20;;;5.63;;
74791;SDS011;63319;46.046;17.802;2023-01-24T18:45:35;9.38;;;5.00;;
74791;SDS011;63319;46.046;17.802;2023-01-24T18:48:41;9.10;;;5.10;;
74791;SDS011;63319;46.046;17.802;2023-01-24T18:51:47;8.88;;;5.57;;
74791;SDS011;63319;46.046;17.802;2023-01-24T18:54:54;9.15;;;5.00;;
74791;SDS011;63319;46.046;17.802;2023-01-24T18:58:01;8.63;;;5.20;;
74791;SDS011;63319;46.046;17.802;2023-01-24T19:01:16;8.85;;;5.40;;
74791;SDS011;63319;46.046;17.802;2023-01-24T19:04:23;9.68;;;6.05;;
74791;SDS011;63319;46.046;17.802;2023-01-24T19:07:31;10.70;;;5.70;;
74791;SDS011;63319;46.046;17.802;2023-01-24T19:10:46;9.38;;;6.25;;
74791;SDS011;63319;46.046;17.802;2023-01-24T19:13:51;9.73;;;5.80;;
74791;SDS011;63319;46.046;17.802;2023-01-24T19:16:56;8.95;;;5.35;;
74791;SDS011;63319;46.046;17.802;2023-01-24T19:20:03;9.75;;;5.95;;
74791;SDS011;63319;46.046;17.802;2023-01-24T19:23:13;8.68;;;5.32;;
74791;SDS011;63319;46.046;17.802;2023-01-24T19:26:21;8.80;;;5.43;;
74791;SDS011;63319;46.046;17.802;2023-01-24T19:29:27;9.57;;;5.93;;
74791;SDS011;63319;46.046;17.802;2023-01-24T19:32:36;10.77;;;6.07;;
74791;SDS011;63319;46.046;17.802;2023-01-24T19:35:41;10.18;;;6.28;;
74791;SDS011;63319;46.046;17.802;2023-01-24T19:38:51;9.73;;;5.70;;
74791;SDS011;63319;46.046;17.802;2023-01-24T19:41:59;8.32;;;5.32;;
74791;SDS011;63319;46.046;17.802;2023-01-24T19:45:05;10.00;;;5.77;;
74791;SDS011;63319;46.046;17.802;2023-01-24T19:48:11;9.77;;;5.20;;
74791;SDS011;63319;46.046;17.802;2023-01-24T19:51:17;8.55;;;5.57;;
74791;SDS011;63319;46.046;17.802;2023-01-24T19:54:22;9.77;;;5.43;;
74791;SDS011;63319;46.046;17.802;2023-01-24T19:57:28;8.68;;;5.68;;
74791;SDS011;63319;46.046;17.802;2023-01-24T20:00:35;8.43;;;5.13;;
74791;SDS011;63319;46.046;17.802;2023-01-24T20:03:40;9.15;;;5.53;;
74791;SDS011;63319;46.046;17.802;2023-01-24T20:06:51;9.00;;;5.43;;
74791;SDS011;63319;46.046;17.802;2023-01-24T20:09:58;9.20;;;5.30;;
74791;SDS011;63319;46.046;17.802;2023-01-24T20:13:02;9.98;;;5.97;;
74791;SDS011;63319;46.046;17.802;2023-01-24T20:16:19;7.73;;;4.70;;
74791;SDS011;63319;46.046;17.802;2023-01-24T20:19:24;9.30;;;5.68;;
74791;SDS011;63319;46.046;17.802;2023-01-24T20:22:32;8.45;;;5.43;;
74791;SDS011;63319;46.046;17.802;2023-01-24T20:25:40;10.00;;;5.38;;
74791;SDS011;63319;46.046;17.802;2023-01-24T20:28:44;10.00;;;6.20;;